Time;durP1;ratioP1;P1;durP2;ratioP2;P2;SDS_P1;SDS_P2;PMS_P1;PMS_P2;Temp;Humidity;BMP_temperature;BMP_pressure;BME280_temperature;BME280_humidity;BME280_pressure;Samples;Min_cycle;Max_cycle;Signal;HPM_P1;HPM_P2
2022/09/30 00:01:43;;;;;;;25.55;18.75;;;;;;;-146.58;100.00;69501.63;4992037;28;20142;-65
2022/09/30 00:04:17;;;;;;;22.55;16.13;;;;;;;-146.58;100.00;69501.63;4990406;28;20120;-64
2022/09/30 00:06:43;;;;;;;19.67;17.67;;;;;;;-146.58;100.00;69501.63;4992362;28;20121;-65
2022/09/30 00:09:12;;;;;;;22.15;18.77;;;;;;;-146.58;100.00;69501.63;4990772;28;20034;-64
2022/09/30 00:11:39;;;;;;;24.17;19.27;;;;;;;-146.58;100.00;69501.63;4991763;28;20088;-64
2022/09/30 00:14:05;;;;;;;38.60;19.48;;;;;;;-146.58;100.00;69501.63;4990898;28;20042;-64
2022/09/30 00:16:35;;;;;;;20.73;17.90;;;;;;;-146.58;100.00;69501.63;4992617;28;20089;-63
2022/09/30 00:19:03;;;;;;;20.45;17.83;;;;;;;-146.58;100.00;69501.63;4990484;28;20038;-63
2022/09/30 00:21:28;;;;;;;22.38;17.70;;;;;;;-146.58;100.00;69501.63;4992121;28;20081;-63
2022/09/30 00:23:54;;;;;;;19.70;17.17;;;;;;;-146.58;100.00;69501.63;4990787;28;20046;-63
2022/09/30 00:26:22;;;;;;;23.77;19.08;;;;;;;-146.58;100.00;69501.63;4991799;28;20030;-63
2022/09/30 00:28:52;;;;;;;26.90;20.90;;;;;;;-146.58;100.00;69501.63;4990887;28;20049;-64
2022/09/30 00:31:19;;;;;;;23.90;21.50;;;;;;;-146.58;100.00;69501.63;4991445;28;20042;-63
2022/09/30 00:34:05;;;;;;;26.70;23.00;;;;;;;-146.58;100.00;69501.63;4990234;28;20106;-63
2022/09/30 00:36:35;;;;;;;24.33;21.25;;;;;;;-146.58;100.00;69501.63;4992142;28;20022;-63
2022/09/30 00:39:01;;;;;;;26.38;20.83;;;;;;;-146.58;100.00;69501.63;4990479;28;20045;-63
2022/09/30 00:41:27;;;;;;;24.85;21.80;;;;;;;-146.58;100.00;69501.63;4991236;28;20077;-63
2022/09/30 00:43:53;;;;;;;22.98;20.63;;;;;;;-146.58;100.00;69501.63;4990828;28;20465;-63
2022/09/30 00:46:38;;;;;;;22.70;20.23;;;;;;;-146.58;100.00;69501.63;4991220;28;20030;-63
2022/09/30 00:49:12;;;;;;;29.00;20.45;;;;;;;-146.58;100.00;69501.63;4989906;28;20046;-62
2022/09/30 00:51:44;;;;;;;31.13;22.52;;;;;;;-146.58;100.00;69501.63;4991715;28;20030;-62
2022/09/30 00:54:14;;;;;;;21.40;19.25;;;;;;;-146.58;100.00;69501.63;4990449;28;20042;-62
2022/09/30 00:56:44;;;;;;;28.08;20.73;;;;;;;-146.58;100.00;69501.63;4990932;28;20026;-62
2022/09/30 00:59:16;;;;;;;28.55;25.67;;;;;;;-146.58;100.00;69501.63;4990151;28;20493;-62
2022/09/30 01:01:43;;;;;;;25.08;21.80;;;;;;;-146.58;100.00;69501.63;4991749;28;20089;-62
2022/09/30 01:04:14;;;;;;;32.20;24.20;;;;;;;-146.58;100.00;69501.63;4989688;28;20069;-62
2022/09/30 01:06:41;;;;;;;40.35;21.58;;;;;;;-146.58;100.00;69501.63;4991759;28;20501;-62
2022/09/30 01:09:07;;;;;;;45.35;21.83;;;;;;;-146.58;100.00;69501.63;4990217;28;20089;-62
2022/09/30 01:11:33;;;;;;;21.05;18.80;;;;;;;-146.58;100.00;69501.63;4990933;28;20509;-62
2022/09/30 01:14:04;;;;;;;91.22;24.38;;;;;;;-146.58;100.00;69501.63;4990308;28;20043;-62
2022/09/30 01:16:43;;;;;;;22.27;19.98;;;;;;;-146.58;100.00;69501.63;4991490;28;20081;-62
2022/09/30 01:19:37;;;;;;;28.63;22.27;;;;;;;-146.58;100.00;69501.63;4990032;28;20041;-62
2022/09/30 01:22:11;;;;;;;26.08;19.98;;;;;;;-146.58;100.00;69501.63;4991082;28;20019;-62
2022/09/30 01:25:12;;;;;;;22.52;19.02;;;;;;;-146.58;100.00;69501.63;4989818;28;20080;-62
2022/09/30 01:27:56;;;;;;;28.98;21.75;;;;;;;-146.58;100.00;69501.63;4989359;28;20046;-62
2022/09/30 01:30:30;;;;;;;24.50;19.92;;;;;;;-146.58;100.00;69501.63;4989538;28;20133;-62
2022/09/30 01:32:56;;;;;;;27.20;24.38;;;;;;;-146.58;100.00;69501.63;4991113;28;20034;-62
2022/09/30 01:35:30;;;;;;;24.70;21.80;;;;;;;-146.58;100.00;69501.63;4989787;28;20048;-62
2022/09/30 01:38:07;;;;;;;35.10;29.27;;;;;;;-146.58;100.00;69501.63;4991212;28;20486;-62
2022/09/30 01:40:46;;;;;;;32.40;27.08;;;;;;;-146.58;100.00;69501.63;4989409;28;20133;-62
2022/09/30 01:43:36;;;;;;;32.80;23.58;;;;;;;-146.58;100.00;69501.63;4991436;28;20074;-62
2022/09/30 01:46:11;;;;;;;28.23;24.52;;;;;;;-146.58;100.00;69501.63;4989838;28;20054;-61
2022/09/30 01:48:54;;;;;;;33.88;29.25;;;;;;;-146.58;100.00;69501.63;4989696;28;20049;-62
2022/09/30 01:51:25;;;;;;;286.85;39.42;;;;;;;-146.58;100.00;69501.63;4990651;28;20482;-61
2022/09/30 01:53:59;;;;;;;206.07;31.10;;;;;;;-146.58;100.00;69501.63;4989281;28;20046;-62
2022/09/30 01:56:36;;;;;;;28.13;22.33;;;;;;;-146.58;100.00;69501.63;4991838;28;20034;-61
2022/09/30 01:59:10;;;;;;;23.65;21.13;;;;;;;-146.58;100.00;69501.63;4993194;28;20146;-60
2022/09/30 02:01:45;;;;;;;25.30;22.40;;;;;;;-146.58;100.00;69501.63;4994279;28;20027;-60
2022/09/30 02:04:23;;;;;;;27.35;24.40;;;;;;;-146.58;100.00;69501.63;4992901;28;20042;-60
2022/09/30 02:06:54;;;;;;;27.38;24.05;;;;;;;-146.58;100.00;69501.63;4994305;28;20109;-60
2022/09/30 02:09:49;;;;;;;28.38;24.42;;;;;;;-146.58;100.00;69501.63;4992877;28;20058;-60
2022/09/30 02:12:23;;;;;;;29.73;26.42;;;;;;;-146.58;100.00;69501.63;4990304;28;20038;-62
2022/09/30 02:14:55;;;;;;;30.15;26.77;;;;;;;-146.58;100.00;69501.63;4993311;28;20064;-60
2022/09/30 02:17:33;;;;;;;25.92;23.20;;;;;;;-146.58;100.00;69501.63;4974572;28;20129;-61
2022/09/30 02:20:05;;;;;;;24.98;22.38;;;;;;;-146.58;100.00;69501.63;4973703;28;20053;-60
2022/09/30 02:22:39;;;;;;;23.42;20.95;;;;;;;-146.58;100.00;69501.63;4975081;28;20039;-60
2022/09/30 02:25:07;;;;;;;29.50;25.83;;;;;;;-146.58;100.00;69501.63;4975914;28;20077;-60
2022/09/30 02:27:44;;;;;;;31.23;25.88;;;;;;;-146.58;100.00;69501.63;4994609;28;20061;-60
2022/09/30 02:30:12;;;;;;;30.52;22.63;;;;;;;-146.58;100.00;69501.63;4992663;28;20129;-61
2022/09/30 02:32:45;;;;;;;24.33;21.73;;;;;;;-146.58;100.00;69501.63;4993930;28;20061;-60
2022/09/30 02:35:24;;;;;;;25.83;21.48;;;;;;;-146.58;100.00;69501.63;4992150;28;20409;-61
2022/09/30 02:37:55;;;;;;;24.67;20.08;;;;;;;-146.58;100.00;69501.63;4994251;28;20867;-60
2022/09/30 02:40:47;;;;;;;142.02;25.30;;;;;;;-146.58;100.00;69501.63;4992144;28;20223;-61
2022/09/30 02:43:14;;;;;;;44.50;26.83;;;;;;;-146.58;100.00;69501.63;4993833;28;20026;-62
2022/09/30 02:46:01;;;;;;;50.13;24.98;;;;;;;-146.58;100.00;69501.63;4992078;28;20047;-64
2022/09/30 02:48:57;;;;;;;27.08;23.77;;;;;;;-146.58;100.00;69501.63;4992616;28;20034;-64
2022/09/30 02:51:55;;;;;;;31.90;27.70;;;;;;;-146.58;100.00;69501.63;4993490;28;20390;-64
2022/09/30 02:54:45;;;;;;;34.45;27.95;;;;;;;-146.58;100.00;69501.63;4992001;28;20050;-65
2022/09/30 02:57:17;;;;;;;32.70;28.85;;;;;;;-146.58;100.00;69501.63;4993591;28;20374;-64
2022/09/30 02:59:45;;;;;;;46.03;26.52;;;;;;;-146.58;100.00;69501.63;4992360;28;20115;-60
2022/09/30 03:02:10;;;;;;;63.33;27.10;;;;;;;-146.58;100.00;69501.63;4993283;28;20022;-60
2022/09/30 03:04:40;;;;;;;39.83;27.10;;;;;;;-146.58;100.00;69501.63;4991961;28;20104;-62
2022/09/30 03:07:05;;;;;;;170.18;35.15;;;;;;;-146.58;100.00;69501.63;4993582;28;20077;-62
2022/09/30 03:09:33;;;;;;;31.05;25.88;;;;;;;-146.58;100.00;69501.63;4991217;28;20198;-62
2022/09/30 03:12:11;;;;;;;341.80;44.92;;;;;;;-146.58;100.00;69501.63;4993256;28;20030;-62
2022/09/30 03:15:17;;;;;;;29.05;24.83;;;;;;;-146.58;100.00;69501.63;4991777;28;20453;-62
2022/09/30 03:17:57;;;;;;;32.42;27.38;;;;;;;-146.58;100.00;69501.63;4962127;28;20125;-62
2022/09/30 03:20:44;;;;;;;35.65;30.88;;;;;;;-146.58;100.00;69501.63;4991683;28;20073;-62
2022/09/30 03:23:25;;;;;;;30.88;26.50;;;;;;;-146.58;100.00;69501.63;4992865;28;20431;-62
2022/09/30 03:26:09;;;;;;;29.15;25.90;;;;;;;-146.58;100.00;69501.63;4972549;28;20054;-62
2022/09/30 03:28:51;;;;;;;30.02;25.40;;;;;;;-146.58;100.00;69501.63;4972615;28;20434;-62
2022/09/30 03:31:28;;;;;;;34.17;29.58;;;;;;;-146.58;100.00;69501.63;4972915;28;20051;-62
2022/09/30 03:34:26;;;;;;;47.13;20.75;;;;;;;-146.58;100.00;69501.63;4976657;28;20514;-60
2022/09/30 03:37:01;;;;;;;29.40;22.60;;;;;;;-146.58;100.00;69501.63;4993047;28;20037;-61
2022/09/30 03:39:55;;;;;;;30.00;24.20;;;;;;;-146.58;100.00;69501.63;4991398;28;20117;-60
2022/09/30 03:42:27;;;;;;;27.90;24.90;;;;;;;-146.58;100.00;69501.63;4992753;28;20025;-60
2022/09/30 03:44:57;;;;;;;30.30;26.20;;;;;;;-146.58;100.00;69501.63;4990700;28;20054;-60
2022/09/30 03:47:25;;;;;;;24.20;21.73;;;;;;;-146.58;100.00;69501.63;4992691;28;20033;-60
2022/09/30 03:49:55;;;;;;;26.73;21.92;;;;;;;-146.58;100.00;69501.63;4991546;28;20128;-61
2022/09/30 03:52:25;;;;;;;27.25;22.05;;;;;;;-146.58;100.00;69501.63;4992146;28;20394;-60
2022/09/30 03:54:54;;;;;;;25.15;21.88;;;;;;;-146.58;100.00;69501.63;4990826;28;20046;-60
2022/09/30 03:57:19;;;;;;;30.33;22.90;;;;;;;-146.58;100.00;69501.63;4992473;28;20041;-60
2022/09/30 03:59:45;;;;;;;23.30;20.85;;;;;;;-146.58;100.00;69501.63;4991013;28;20423;-61
2022/09/30 04:02:12;;;;;;;46.47;23.52;;;;;;;-146.58;100.00;69501.63;4992338;28;20022;-60
2022/09/30 04:04:38;;;;;;;31.45;22.45;;;;;;;-146.58;100.00;69501.63;4990793;28;20046;-61
2022/09/30 04:07:04;;;;;;;28.77;25.65;;;;;;;-146.58;100.00;69501.63;4992120;28;20077;-61
2022/09/30 04:09:29;;;;;;;40.13;25.08;;;;;;;-146.58;100.00;69501.63;4991277;28;20034;-61
2022/09/30 04:11:55;;;;;;;43.83;23.05;;;;;;;-146.58;100.00;69501.63;4991860;28;20389;-67
2022/09/30 04:14:20;;;;;;;26.30;23.35;;;;;;;-146.58;100.00;69501.63;4989821;28;20100;-63
2022/09/30 04:16:46;;;;;;;25.65;22.13;;;;;;;-146.58;100.00;69501.63;4991928;28;20034;-63
2022/09/30 04:19:11;;;;;;;26.58;22.38;;;;;;;-146.58;100.00;69501.63;4990633;28;20038;-59
2022/09/30 04:21:36;;;;;;;29.98;26.10;;;;;;;-146.58;100.00;69501.63;4992159;28;20081;-63
2022/09/30 04:24:02;;;;;;;27.95;23.70;;;;;;;-146.58;100.00;69501.63;4990368;28;20410;-63
2022/09/30 04:26:27;;;;;;;33.42;24.65;;;;;;;-146.58;100.00;69501.63;4992326;28;20034;-63
2022/09/30 04:28:57;;;;;;;26.73;22.02;;;;;;;-146.58;100.00;69501.63;4989835;28;20069;-63
2022/09/30 04:31:22;;;;;;;28.90;24.35;;;;;;;-146.58;100.00;69501.63;4989911;28;20038;-63
2022/09/30 04:33:47;;;;;;;29.40;25.98;;;;;;;-146.58;100.00;69501.63;4989821;28;20061;-63
2022/09/30 04:36:13;;;;;;;26.25;22.80;;;;;;;-146.58;100.00;69501.63;4991732;28;20026;-63
2022/09/30 04:38:38;;;;;;;26.58;23.88;;;;;;;-146.58;100.00;69501.63;4990525;28;20046;-63
2022/09/30 04:41:06;;;;;;;38.20;30.17;;;;;;;-146.58;100.00;69501.63;4992012;28;20025;-62
2022/09/30 04:43:33;;;;;;;36.33;30.25;;;;;;;-146.58;100.00;69501.63;4990773;28;20022;-63
2022/09/30 04:45:58;;;;;;;113.93;27.23;;;;;;;-146.58;100.00;69501.63;4991382;28;20030;-62
2022/09/30 04:48:24;;;;;;;47.97;18.77;;;;;;;-146.58;100.00;69501.63;4990271;28;20022;-62
2022/09/30 04:50:50;;;;;;;24.35;21.85;;;;;;;-146.58;100.00;69501.63;4990415;28;20022;-62
2022/09/30 04:53:18;;;;;;;28.63;25.55;;;;;;;-146.58;100.00;69501.63;4990742;28;20062;-62
2022/09/30 04:55:44;;;;;;;29.37;26.20;;;;;;;-146.58;100.00;69501.63;4990243;28;20403;-62
2022/09/30 04:58:10;;;;;;;37.22;30.08;;;;;;;-146.58;100.00;69501.63;4991380;28;20057;-62
2022/09/30 05:00:35;;;;;;;46.45;35.40;;;;;;;-146.58;100.00;69501.63;4989187;28;20116;-62
2022/09/30 05:03:02;;;;;;;35.80;28.90;;;;;;;-146.58;100.00;69501.63;4990338;28;20073;-63
2022/09/30 05:05:27;;;;;;;37.67;28.92;;;;;;;-146.58;100.00;69501.63;4989164;28;20038;-62
2022/09/30 05:07:52;;;;;;;44.65;31.30;;;;;;;-146.58;100.00;69501.63;4991350;28;20045;-62
2022/09/30 05:10:18;;;;;;;33.75;27.50;;;;;;;-146.58;100.00;69501.63;4990108;28;20421;-62
2022/09/30 05:12:44;;;;;;;32.30;27.50;;;;;;;-146.58;100.00;69501.63;4991505;28;20034;-62
2022/09/30 05:15:10;;;;;;;38.30;32.33;;;;;;;-146.58;100.00;69501.63;4989514;28;20126;-62
2022/09/30 05:17:36;;;;;;;36.22;30.25;;;;;;;-146.58;100.00;69501.63;4991612;28;20109;-63
2022/09/30 05:20:02;;;;;;;41.10;33.67;;;;;;;-146.58;100.00;69501.63;4990089;28;20042;-63
2022/09/30 05:22:27;;;;;;;64.55;36.53;;;;;;;-146.58;100.00;69501.63;4991355;28;20042;-63
2022/09/30 05:24:54;;;;;;;55.92;36.53;;;;;;;-146.58;100.00;69501.63;4990284;28;20486;-59
2022/09/30 05:27:23;;;;;;;183.90;48.35;;;;;;;-146.58;100.00;69501.63;4991477;28;20058;-60
2022/09/30 05:29:48;;;;;;;97.40;39.03;;;;;;;-146.58;100.00;69501.63;4989634;28;20502;-59
2022/09/30 05:32:14;;;;;;;49.03;33.95;;;;;;;-146.58;100.00;69501.63;4993378;28;20038;-59
2022/09/30 05:34:39;;;;;;;51.88;35.25;;;;;;;-146.58;100.00;69501.63;4993971;28;20558;-59
2022/09/30 05:37:05;;;;;;;39.95;32.45;;;;;;;-146.58;100.00;69501.63;4994603;28;20474;-59
2022/09/30 05:39:30;;;;;;;39.25;29.88;;;;;;;-146.58;100.00;69501.63;4993876;28;20038;-59
2022/09/30 05:41:57;;;;;;;35.60;31.48;;;;;;;-146.58;100.00;69501.63;4995309;28;20026;-59
2022/09/30 05:44:23;;;;;;;55.28;38.45;;;;;;;-146.58;100.00;69501.63;4993157;28;20116;-59
2022/09/30 05:46:48;;;;;;;58.53;41.55;;;;;;;-146.58;100.00;69501.63;4995131;28;20026;-59
2022/09/30 05:49:13;;;;;;;62.35;40.58;;;;;;;-146.58;100.00;69501.63;4993013;28;20042;-59
2022/09/30 05:51:39;;;;;;;76.63;41.28;;;;;;;-146.58;100.00;69501.63;4994640;28;20022;-60
2022/09/30 05:54:04;;;;;;;54.63;39.92;;;;;;;-146.58;100.00;69501.63;4992020;28;20489;-59
2022/09/30 05:56:29;;;;;;;64.88;39.97;;;;;;;-146.58;100.00;69501.63;4994673;28;20030;-59
2022/09/30 05:58:55;;;;;;;56.45;40.13;;;;;;;-146.58;100.00;69501.63;4992661;28;20045;-62
2022/09/30 06:01:20;;;;;;;67.78;42.67;;;;;;;-146.58;100.00;69501.63;4994609;28;20486;-58
2022/09/30 06:03:47;;;;;;;62.03;43.80;;;;;;;-146.58;100.00;69501.63;4993622;28;20096;-60
2022/09/30 06:06:13;;;;;;;68.03;47.97;;;;;;;-146.58;100.00;69501.63;4994208;28;20034;-59
2022/09/30 06:08:40;;;;;;;63.00;47.88;;;;;;;-146.58;100.00;69501.63;4993050;28;20039;-59
2022/09/30 06:11:10;;;;;;;70.50;45.83;;;;;;;-146.58;100.00;69501.63;4994784;28;20027;-60
2022/09/30 06:13:36;;;;;;;65.78;45.30;;;;;;;-146.58;100.00;69501.63;4992889;28;20042;-59
2022/09/30 06:16:02;;;;;;;62.45;48.10;;;;;;;-146.58;100.00;69501.63;4994354;28;20026;-59
2022/09/30 06:18:28;;;;;;;64.63;46.17;;;;;;;-146.58;100.00;69501.63;4993346;28;20030;-59
2022/09/30 06:20:57;;;;;;;54.83;43.25;;;;;;;-146.58;100.00;69501.63;4993983;28;20030;-60
2022/09/30 06:23:23;;;;;;;55.65;43.00;;;;;;;-146.58;100.00;69501.63;4992309;28;20034;-59
2022/09/30 06:25:50;;;;;;;60.05;46.30;;;;;;;-146.58;100.00;69501.63;4994391;28;20492;-60
2022/09/30 06:28:16;;;;;;;72.38;46.50;;;;;;;-146.58;100.00;69501.63;4992380;28;20386;-59
2022/09/30 06:30:43;;;;;;;63.00;44.25;;;;;;;-146.58;100.00;69501.63;4994068;28;20026;-60
2022/09/30 06:33:08;;;;;;;70.13;47.42;;;;;;;-146.58;100.00;69501.63;4994242;28;20022;-59
2022/09/30 06:35:33;;;;;;;59.30;45.10;;;;;;;-146.58;100.00;69501.63;4992554;28;20042;-59
2022/09/30 06:37:59;;;;;;;55.92;43.38;;;;;;;-146.58;100.00;69501.63;4994227;28;20088;-60
2022/09/30 06:40:24;;;;;;;64.03;46.22;;;;;;;-146.58;100.00;69501.63;4992523;28;20038;-59
2022/09/30 06:42:50;;;;;;;70.88;49.28;;;;;;;-146.58;100.00;69501.63;4992495;28;20022;-60
2022/09/30 06:45:17;;;;;;;66.88;48.70;;;;;;;-146.58;100.00;69501.63;4992383;28;20054;-59
2022/09/30 06:47:45;;;;;;;62.15;48.72;;;;;;;-146.58;100.00;69501.63;4994258;28;20386;-60
2022/09/30 06:50:10;;;;;;;65.45;49.22;;;;;;;-146.58;100.00;69501.63;4991734;28;20039;-59
2022/09/30 06:52:36;;;;;;;56.92;45.20;;;;;;;-146.58;100.00;69501.63;4993690;28;20018;-60
2022/09/30 06:55:01;;;;;;;52.72;44.17;;;;;;;-146.58;100.00;69501.63;4992152;28;20577;-60
2022/09/30 06:57:26;;;;;;;53.80;42.97;;;;;;;-146.58;100.00;69501.63;4993763;28;20233;-60
2022/09/30 06:59:53;;;;;;;60.40;46.15;;;;;;;-146.58;100.00;69501.63;4992277;28;20560;-59
2022/09/30 07:02:19;;;;;;;58.78;45.58;;;;;;;-146.58;100.00;69501.63;4993377;28;20501;-60
2022/09/30 07:04:44;;;;;;;63.97;48.72;;;;;;;-146.58;100.00;69501.63;4991866;28;20043;-60
2022/09/30 07:07:09;;;;;;;62.28;47.67;;;;;;;-146.58;100.00;69501.63;4993440;28;20034;-60
2022/09/30 07:09:35;;;;;;;57.15;43.90;;;;;;;-146.58;100.00;69501.63;4989851;28;20433;-60
2022/09/30 07:12:00;;;;;;;60.22;46.15;;;;;;;-146.58;100.00;69501.63;5006526;28;20038;-60
2022/09/30 07:14:26;;;;;;;55.20;44.45;;;;;;;-146.58;100.00;69501.63;5010320;28;20038;-60
2022/09/30 07:16:52;;;;;;;58.90;45.00;;;;;;;-146.58;100.00;69501.63;4992780;28;20046;-60
2022/09/30 07:19:21;;;;;;;54.28;44.58;;;;;;;-146.58;100.00;69501.63;4991126;28;20034;-60
2022/09/30 07:21:47;;;;;;;53.97;42.55;;;;;;;-146.58;100.00;69501.63;4992239;28;20431;-60
2022/09/30 07:24:13;;;;;;;56.47;43.85;;;;;;;-146.58;100.00;69501.63;4990947;28;20050;-59
2022/09/30 07:26:39;;;;;;;50.13;41.75;;;;;;;-146.58;100.00;69501.63;4991579;28;20030;-60
2022/09/30 07:29:06;;;;;;;48.47;39.72;;;;;;;-146.58;100.00;69501.63;4990350;28;20518;-60
2022/09/30 07:31:32;;;;;;;53.13;38.35;;;;;;;-146.58;100.00;69501.63;4993178;28;20046;-60
2022/09/30 07:33:58;;;;;;;52.28;43.35;;;;;;;-146.58;100.00;69501.63;4988517;28;20058;-60
2022/09/30 07:36:29;;;;;;;53.25;43.70;;;;;;;-146.58;100.00;69501.63;4992020;28;20026;-60
2022/09/30 07:38:55;;;;;;;49.65;39.53;;;;;;;-146.58;100.00;69501.63;4991743;28;20058;-60
2022/09/30 07:41:26;;;;;;;47.25;39.70;;;;;;;-146.58;100.00;69501.63;4992803;28;20037;-59
2022/09/30 07:43:53;;;;;;;49.97;40.95;;;;;;;-146.58;100.00;69501.63;4991504;28;20040;-61
2022/09/30 07:46:24;;;;;;;45.10;36.63;;;;;;;-146.58;100.00;69501.63;4992685;28;20492;-60
2022/09/30 07:48:53;;;;;;;44.40;35.55;;;;;;;-146.58;100.00;69501.63;4991470;28;20062;-60
2022/09/30 07:51:20;;;;;;;;;;;;;;;-146.58;100.00;69501.63;4993255;28;20034;-60
2022/09/30 07:53:49;;;;;;;43.22;31.45;;;;;;;-146.58;100.00;69501.63;4991295;28;19914;-60
2022/09/30 07:56:15;;;;;;;40.85;35.90;;;;;;;-146.58;100.00;69501.63;4992577;28;20037;-60
2022/09/30 07:58:40;;;;;;;36.25;32.13;;;;;;;-146.58;100.00;69501.63;4991169;28;20519;-60
2022/09/30 08:01:06;;;;;;;46.00;34.13;;;;;;;-146.58;100.00;69501.63;4992695;28;20023;-60
2022/09/30 08:03:33;;;;;;;36.63;29.83;;;;;;;-146.58;100.00;69501.63;4991179;28;20437;-60
2022/09/30 08:06:06;;;;;;;32.38;28.88;;;;;;;-146.58;100.00;69501.63;4991944;28;20026;-60
2022/09/30 08:08:32;;;;;;;30.98;27.15;;;;;;;-146.58;100.00;69501.63;4991006;28;20081;-60
2022/09/30 08:10:59;;;;;;;29.13;25.88;;;;;;;-146.58;100.00;69501.63;4992740;28;20018;-59
2022/09/30 08:13:24;;;;;;;30.95;24.95;;;;;;;-146.58;100.00;69501.63;4990561;28;20021;-60
2022/09/30 08:15:49;;;;;;;33.25;27.08;;;;;;;-146.58;100.00;69501.63;4990890;28;20030;-60
2022/09/30 08:18:15;;;;;;;30.48;25.25;;;;;;;-146.58;100.00;69501.63;4989249;28;20421;-59
2022/09/30 08:20:40;;;;;;;27.13;24.27;;;;;;;-146.58;100.00;69501.63;4991499;28;20022;-60
2022/09/30 08:23:05;;;;;;;26.38;22.15;;;;;;;-146.58;100.00;69501.63;4991263;28;20033;-60
2022/09/30 08:25:31;;;;;;;24.85;22.20;;;;;;;-146.58;100.00;69501.63;4988526;28;20034;-60
2022/09/30 08:27:56;;;;;;;24.63;22.13;;;;;;;-146.58;100.00;69501.63;5010051;28;20041;-60
2022/09/30 08:30:21;;;;;;;25.73;23.17;;;;;;;-146.58;100.00;69501.63;5009086;28;20086;-60
2022/09/30 08:32:47;;;;;;;24.73;20.27;;;;;;;-146.58;100.00;69501.63;4991702;28;20051;-60
2022/09/30 08:35:12;;;;;;;22.23;19.58;;;;;;;-146.58;100.00;69501.63;4989906;28;20042;-60
2022/09/30 08:37:37;;;;;;;25.02;21.17;;;;;;;-146.58;100.00;69501.63;4991548;28;20041;-60
2022/09/30 08:40:03;;;;;;;22.30;20.00;;;;;;;-146.58;100.00;69501.63;4990068;28;20046;-60
2022/09/30 08:42:45;;;;;;;24.92;20.80;;;;;;;-146.58;100.00;69501.63;4991953;28;20026;-60
2022/09/30 08:45:25;;;;;;;33.85;20.88;;;;;;;-146.58;100.00;69501.63;4970656;28;20042;-60
2022/09/30 08:48:04;;;;;;;21.90;19.02;;;;;;;-146.58;100.00;69501.63;4972538;28;20034;-61
2022/09/30 08:50:34;;;;;;;20.17;17.88;;;;;;;-146.58;100.00;69501.63;4971032;28;20039;-61
2022/09/30 08:53:10;;;;;;;24.60;19.90;;;;;;;-146.58;100.00;69501.63;4972002;28;20636;-60
2022/09/30 08:55:42;;;;;;;20.33;18.13;;;;;;;-146.58;100.00;69501.63;4980744;28;20202;-60
2022/09/30 08:58:37;;;;;;;26.10;19.38;;;;;;;-146.58;100.00;69501.63;4991661;28;20026;-60
2022/09/30 09:01:22;;;;;;;21.65;19.30;;;;;;;-146.58;100.00;69501.63;4990282;28;20612;-60
2022/09/30 09:03:47;;;;;;;24.10;18.27;;;;;;;-146.58;100.00;69501.63;4990167;28;20034;-60
2022/09/30 09:06:19;;;;;;;20.55;17.05;;;;;;;-146.58;100.00;69501.63;4990664;28;20034;-60
2022/09/30 09:08:53;;;;;;;20.98;16.85;;;;;;;-146.58;100.00;69501.63;4990221;28;20038;-60
2022/09/30 09:11:46;;;;;;;22.27;18.20;;;;;;;-146.58;100.00;69501.63;4991148;28;20026;-60
2022/09/30 09:14:31;;;;;;;20.33;18.13;;;;;;;-146.58;100.00;69501.63;4990183;28;20045;-60
2022/09/30 09:17:28;;;;;;;18.65;15.45;;;;;;;-146.58;100.00;69501.63;4991671;28;20057;-60
2022/09/30 09:20:04;;;;;;;20.77;17.17;;;;;;;-146.58;100.00;69501.63;4989854;28;20120;-60
2022/09/30 09:22:30;;;;;;;23.45;16.80;;;;;;;-146.58;100.00;69501.63;4991812;28;20029;-60
2022/09/30 09:24:57;;;;;;;17.02;15.25;;;;;;;-146.58;100.00;69501.63;4990247;28;20053;-60
2022/09/30 09:27:41;;;;;;;17.25;15.32;;;;;;;-146.58;100.00;69501.63;4991261;28;20113;-61
2022/09/30 09:30:14;;;;;;;19.27;17.27;;;;;;;-146.58;100.00;69501.63;4989875;28;20038;-60
2022/09/30 09:32:41;;;;;;;18.98;16.02;;;;;;;-146.58;100.00;69501.63;4990972;28;20054;-60
2022/09/30 09:35:16;;;;;;;22.00;18.67;;;;;;;-146.58;100.00;69501.63;4989783;28;20042;-60
2022/09/30 09:41:02;;;;;;;20.25;16.88;;;;;;;-146.58;100.00;69501.63;4989910;28;20229;-61
2022/09/30 09:43:50;;;;;;;28.08;18.85;;;;;;;-146.58;100.00;69501.63;4990251;28;20034;-60
2022/09/30 09:46:40;;;;;;;22.80;20.38;;;;;;;-146.58;100.00;69501.63;4991467;28;20014;-60
2022/09/30 09:49:38;;;;;;;19.75;17.75;;;;;;;-146.58;100.00;69501.63;4989360;28;20118;-60
2022/09/30 09:52:12;;;;;;;24.27;21.77;;;;;;;-146.58;100.00;69501.63;4991254;28;20092;-60
2022/09/30 09:54:44;;;;;;;21.80;19.58;;;;;;;-146.58;100.00;69501.63;4994427;28;20056;-60
2022/09/30 09:57:13;;;;;;;28.65;20.00;;;;;;;-146.58;100.00;69501.63;5009031;28;20489;-61
2022/09/30 10:02:59;;;;;;;23.83;20.77;;;;;;;-146.58;100.00;69501.63;4991299;28;20570;-60
2022/09/30 10:05:25;;;;;;;21.80;19.65;;;;;;;-146.58;100.00;69501.63;4989086;28;20034;-60
2022/09/30 10:08:12;;;;;;;26.33;20.75;;;;;;;-146.58;100.00;69501.63;4991265;28;20062;-60
2022/09/30 10:10:56;;;;;;;22.48;20.08;;;;;;;-146.58;100.00;69501.63;4989285;28;20394;-60
2022/09/30 10:13:26;;;;;;;23.80;20.70;;;;;;;-146.58;100.00;69501.63;4989680;28;20130;-60
2022/09/30 10:15:55;;;;;;;22.50;19.58;;;;;;;-146.58;100.00;69501.63;4990985;28;20031;-60
2022/09/30 10:18:41;;;;;;;19.77;17.70;;;;;;;-146.58;100.00;69501.63;4990777;28;20337;-60
2022/09/30 10:21:21;;;;;;;24.08;18.23;;;;;;;-146.58;100.00;69501.63;4994049;28;20030;-61
2022/09/30 10:23:47;;;;;;;25.92;17.92;;;;;;;-146.58;100.00;69501.63;4992806;28;20034;-60
2022/09/30 10:26:12;;;;;;;19.15;16.10;;;;;;;-146.58;100.00;69501.63;4994138;28;20026;-61
2022/09/30 10:29:03;;;;;;;22.15;17.40;;;;;;;-146.58;100.00;69501.63;4992779;28;20121;-61
2022/09/30 10:31:34;;;;;;;16.58;13.93;;;;;;;-146.58;100.00;69501.63;4994402;28;20046;-60
2022/09/30 10:34:18;;;;;;;20.23;16.92;;;;;;;-146.58;100.00;69501.63;4992141;28;20042;-58
2022/09/30 10:36:45;;;;;;;17.13;15.45;;;;;;;-146.58;100.00;69501.63;4993735;28;20040;-60
2022/09/30 10:39:29;;;;;;;16.15;14.55;;;;;;;-146.58;100.00;69501.63;4992323;28;20121;-60
2022/09/30 10:42:14;;;;;;;20.98;17.27;;;;;;;-146.58;100.00;69501.63;4994120;28;20022;-60
2022/09/30 10:44:46;;;;;;;20.50;18.50;;;;;;;-146.58;100.00;69501.63;4992199;28;20125;-60
2022/09/30 10:47:18;;;;;;;17.83;16.02;;;;;;;-146.58;100.00;69501.63;4993561;28;20411;-60
2022/09/30 10:49:49;;;;;;;18.73;15.20;;;;;;;-146.58;100.00;69501.63;4992700;28;20126;-60
2022/09/30 10:52:27;;;;;;;19.52;15.57;;;;;;;-146.58;100.00;69501.63;4993678;28;20076;-60
2022/09/30 10:54:57;;;;;;;19.23;16.30;;;;;;;-146.58;100.00;69501.63;4991851;28;20524;-60
2022/09/30 10:57:30;;;;;;;16.65;14.63;;;;;;;-146.58;100.00;69501.63;4992404;28;20506;-63
2022/09/30 11:00:08;;;;;;;18.33;16.52;;;;;;;-146.58;100.00;69501.63;4991883;28;20035;-58
2022/09/30 11:02:41;;;;;;;18.60;15.02;;;;;;;-146.58;100.00;69501.63;4993645;28;20085;-60
2022/09/30 11:05:18;;;;;;;15.90;14.23;;;;;;;-146.58;100.00;69501.63;4991459;28;20506;-60
2022/09/30 11:07:47;;;;;;;17.10;15.40;;;;;;;-146.58;100.00;69501.63;4993084;28;20498;-61
2022/09/30 11:10:45;;;;;;;17.20;14.73;;;;;;;-146.58;100.00;69501.63;4991280;28;20453;-61
2022/09/30 11:13:41;;;;;;;16.50;14.82;;;;;;;-146.58;100.00;69501.63;4993101;28;20627;-60
2022/09/30 11:16:40;;;;;;;14.88;13.13;;;;;;;-146.58;100.00;69501.63;4991802;28;20118;-60
2022/09/30 11:19:18;;;;;;;15.88;14.40;;;;;;;-146.58;100.00;69501.63;4991924;28;20402;-61
2022/09/30 11:21:53;;;;;;;17.58;15.75;;;;;;;-146.58;100.00;69501.63;4993222;28;20041;-60